LPPT/LIS METAR and TAF weather

Enter ICAO airport designator
Station Type Date Time Source
LPPT METAR 2022/11/30 10:30 UTC NOAA

LPPT 301030Z 10004KT 020V140 9999 FEW005 BKN022 11/10 Q1017


Station Type Date Time Source
LPPT Decoded METAR 2022/11/30 10:30 UTC NOAA

Lisboa / Portela, Portugal (LPPT) 38-46N 009-08W 123M
Nov 30, 2022 - 05:30 AM EST / 2022.11.30 1030 UTC
Wind: from the E (100 degrees) at 5 MPH (4 KT) (direction variable):0
Visibility: greater than 7 mile(s):0
Sky conditions: mostly cloudy
Temperature: 51 F (11 C)
Dew Point: 50 F (10 C)
Relative Humidity: 93%
Pressure (altimeter): 30.03 in. Hg (1017 hPa)
ob: LPPT 301030Z 10004KT 020V140 9999 FEW005 BKN022 11/10 Q1017
cycle: 10

Station Type Date Time Source
LPPT TAF 2022/11/30 06:18 UTC NOAA

TAF LPPT 300500Z 3006/0112 15005KT 9999 SCT030 PROB30
TEMPO 3006/3009 3000 BR BKN003
BECMG 3009/3012 16010KT SCT015 BKN030
TEMPO 3012/3021 5000 -RADZ BR SCT008 BKN015 PROB40
TEMPO 3013/3021 2000 RADZ BR BKN004
BECMG 3017/3019 VRB05KT
BECMG 3021/3024 03008KT SCT004 BKN008

Example: see airport list